Waswanipi, Canada
Current Conditions -  °F | °C
As of 12:56 AM on Friday 31 Oct 2014 (Local Time) from CYNM Reporting Station
Light Snow Light Snow  
Wind Chill: 21°   Ceiling: 6000
Heat Index: 28°   Visibility: 9mi
Dew Point: 25°   Wind: 7mph
Humidity: 86%   Direction: 330°NNW
Pressure: 30.03"   Gusts: NA
Location:  49.65°N, 76.48°W
Report Text: CYNM 310456Z AUTO 33006KT 9SM -SN BKN060 OVC074 M02/M04 A3003 RMK ICG MISG SLP186
Loading
Personal Weather Stations






























Interactive Weather Map New forecast layout! Learn more

10-Day Weather Forecast

Advertisements
Track Severe Weather on mobile